Flight Track Log - Related Links

Times and Time Zones

All times are in EDT time to prevent confusion due to time zone crossing. See the N855TA flight status page for this flight to view local times or setup timezone preferences in your user account.

Time Position Orientation Groundspeed Altitude Reporting Facility
EDT Latitude Longitude Course Direction KTS MPH feet Rate Location/Type
Sat 10:27:25 AM 34.7522 -80.6789 180° South 165 190 4,000  Level Atlanta Center
Sat 10:28:50 AM 34.6833 -80.6792 180° South 178 205 4,300 212 Climbing Atlanta Center
Sat 10:30:00 AM 34.6359 -80.6795 182° South  Level Estimated
Sat 10:37:00 AM 34.3514 -80.6766 180° South  Level FlightAware
Sat 10:38:00 AM 34.3107 -80.6762 180° South  Level FlightAware
Sat 10:39:00 AM 34.2701 -80.6758 180° South  Level FlightAware
Sat 10:40:00 AM 34.2294 -80.6754 180° South  Level FlightAware
Sat 10:41:00 AM 34.1888 -80.6750 180° South  Level FlightAware
Sat 10:42:00 AM 34.1481 -80.6746 180° South  Level FlightAware
Sat 10:43:00 AM 34.1075 -80.6741 180° South  Level FlightAware
Sat 10:44:00 AM 34.0668 -80.6737 180° South  Level FlightAware
Sat 10:45:00 AM 34.0262 -80.6733 180° South  Level FlightAware
Sat 10:46:00 AM 33.9855 -80.6729 180° South  Level FlightAware
Sat 10:47:00 AM 33.9449 -80.6725 180° South  Level FlightAware
Sat 10:48:00 AM 33.9042 -80.6721 180° South  Level FlightAware
Sat 10:49:00 AM 33.8636 -80.6717 180° South  Level FlightAware
Sat 10:50:00 AM 33.8229 -80.6713 180° South  Level FlightAware
Sat 10:51:00 AM 33.7823 -80.6709 180° South  Level FlightAware
Sat 10:52:00 AM 33.7416 -80.6704 180° South  Level FlightAware
Sat 10:53:00 AM 33.7010 -80.6700 180° South  Level FlightAware
Sat 10:54:00 AM 33.6603 -80.6696 180° South  Level FlightAware
Sat 10:55:00 AM 33.6197 -80.6692 180° South  Level FlightAware
Sat 10:56:00 AM 33.5790 -80.6688 180° South  Level FlightAware
Sat 10:57:00 AM 33.5384 -80.6684 180° South  Level FlightAware
Sat 10:58:00 AM 33.4977 -80.6680 180° South  Level FlightAware
Sat 10:59:00 AM 33.4571 -80.6676 180° South  Level FlightAware
Sat 11:00:00 AM 33.4164 -80.6672 180° South  Level FlightAware
Sat 11:01:00 AM 33.3758 -80.6668 180° South  Level FlightAware
Sat 11:02:00 AM 33.3358 -80.6667 180° South  Level FlightAware
Sat 11:03:00 AM 33.2951 -80.6667 180° South  Level FlightAware
Sat 11:04:00 AM 33.2545 -80.6667 180° South  Level FlightAware
Sat 11:05:00 AM 33.2138 -80.6667 180° South  Level FlightAware
Sat 11:06:00 AM 33.1732 -80.6667 180° South  Level FlightAware
Sat 11:07:00 AM 33.1325 -80.6667 180° South  Level FlightAware
Sat 11:08:00 AM 33.0919 -80.6667 180° South  Level FlightAware
Sat 11:09:00 AM 33.0512 -80.6667 180° South  Level FlightAware
Sat 11:10:00 AM 33.0106 -80.6667 180° South  Level FlightAware
Sat 11:11:00 AM 32.9699 -80.6667 180° South  Level FlightAware
Sat 11:12:00 AM 32.9293 -80.6667 180° South  Level FlightAware
Sat 11:13:00 AM 32.8886 -80.6667 180° South  Level FlightAware
Sat 11:14:00 AM 32.8481 -80.6687 185° South  Level FlightAware
Sat 11:15:00 AM 32.8076 -80.6732 185° South  Level FlightAware
Sat 11:16:00 AM 32.7671 -80.6777 185° South  Level FlightAware
Sat 11:17:00 AM 32.7267 -80.6822 185° South  Level FlightAware
Sat 11:18:00 AM 32.6860 -80.6833 180° South  Level FlightAware
Sat 11:19:00 AM 32.6454 -80.6833 180° South  Level FlightAware
Sat 11:20:00 AM 32.6047 -80.6833 180° South  Level FlightAware
Sat 11:21:00 AM 32.5641 -80.6833 180° South  Level FlightAware
Sat 11:22:00 AM 32.5234 -80.6833 180° South  Level FlightAware
Sat 11:23:00 AM 32.4828 -80.6833 180° South  Level FlightAware
Sat 11:24:00 AM 32.4421 -80.6833 180° South  Level FlightAware
Sat 11:25:00 AM 32.4015 -80.6833 180° South  Level FlightAware
Sat 11:26:00 AM 32.3608 -80.6833 180° South  Level FlightAware
Sat 11:27:00 AM 32.3202 -80.6833 180° South  Level FlightAware
Sat 11:28:00 AM 32.2795 -80.6833 180° South  Level FlightAware
Sat 11:29:00 AM 32.2389 -80.6833 180° South  Level FlightAware
Sat 11:30:00 AM 32.2167 -80.6833 North  Level FlightAware
Sat 11:31:00 AM 32.2244 -80.6975 North  Level Estimated
Sat 11:32:00 AM 32.2244 -80.6975 North  Level Estimated
Sat 11:33:00 AM 32.2244 -80.6975 North  Level Estimated

Login

Don't have an account? Register now (free) for customized features, flight alerts, and more!